Time;durP1;ratioP1;P1;durP2;ratioP2;P2;SDS_P1;SDS_P2;PMS_P1;PMS_P2;Temp;Humidity;BMP_temperature;BMP_pressure;BME280_temperature;BME280_humidity;BME280_pressure;Samples;Min_cycle;Max_cycle;Signal;HPM_P1;HPM_P2
2023/06/21 00:01:53;;;;;;;17.83;10.25;;;;;;;20.23;100.00;96091.56;5090965;28;20072;-74
2023/06/21 00:04:19;;;;;;;16.48;11.20;;;;;;;20.08;100.00;96102.53;5091288;28;20079;-73
2023/06/21 00:06:49;;;;;;;24.05;11.32;;;;;;;20.08;100.00;96112.78;5091010;28;20047;-73
2023/06/21 00:09:16;;;;;;;45.40;11.50;;;;;;;20.16;100.00;96121.94;5090197;28;20044;-74
2023/06/21 00:11:44;;;;;;;37.97;12.80;;;;;;;20.12;100.00;96132.19;5103330;27;20040;-73
2023/06/21 00:14:11;;;;;;;44.50;15.43;;;;;;;20.05;100.00;96132.94;5091200;28;20067;-74
2023/06/21 00:16:38;;;;;;;28.23;13.45;;;;;;;20.07;100.00;96139.66;5091828;28;20039;-74
2023/06/21 00:19:04;;;;;;;25.38;14.25;;;;;;;20.03;100.00;96138.81;5091422;28;20032;-74
2023/06/21 00:21:31;;;;;;;22.63;13.60;;;;;;;19.91;100.00;96136.38;5093305;28;20044;-75
2023/06/21 00:24:01;;;;;;;19.27;12.82;;;;;;;19.90;100.00;96134.78;5095173;28;20522;-75
2023/06/21 00:26:28;;;;;;;18.90;12.25;;;;;;;19.98;100.00;96139.19;5093731;28;20052;-75
2023/06/21 00:28:56;;;;;;;19.05;11.93;;;;;;;20.03;100.00;96152.63;5094204;28;20052;-75
2023/06/21 00:31:22;;;;;;;21.67;12.07;;;;;;;20.07;100.00;96150.69;5101480;28;20044;-75
2023/06/21 00:33:49;;;;;;;24.13;11.77;;;;;;;20.05;100.00;96127.41;5097880;28;20044;-74
2023/06/21 00:36:15;;;;;;;18.10;10.85;;;;;;;20.13;100.00;96147.56;5107953;27;20044;-74
2023/06/21 00:38:42;;;;;;;17.15;12.00;;;;;;;20.18;100.00;96161.03;5095654;28;20043;-76
2023/06/21 00:41:09;;;;;;;20.35;11.63;;;;;;;20.11;100.00;96150.72;5090184;28;20048;-75
2023/06/21 00:43:35;;;;;;;26.55;14.00;;;;;;;20.05;100.00;96157.81;5095993;28;20040;-75
2023/06/21 00:46:04;;;;;;;18.83;11.40;;;;;;;20.06;100.00;96154.66;5095702;28;20051;-76
2023/06/21 00:48:30;;;;;;;23.27;14.10;;;;;;;20.04;100.00;96170.81;5093211;28;20044;-75
2023/06/21 00:50:57;;;;;;;15.88;11.27;;;;;;;20.11;100.00;96163.75;5090851;28;20516;-74
2023/06/21 00:53:26;;;;;;;21.52;13.45;;;;;;;20.07;100.00;96166.50;5097402;28;20047;-74
2023/06/21 00:55:53;;;;;;;25.58;12.05;;;;;;;20.08;100.00;96171.63;5108549;28;20043;-74
2023/06/21 00:58:21;;;;;;;43.05;13.93;;;;;;;20.07;100.00;96183.88;5090262;28;20055;-74
2023/06/21 01:00:49;;;;;;;39.67;11.93;;;;;;;20.09;100.00;96194.53;5096739;28;20047;-75
2023/06/21 01:03:18;;;;;;;43.33;12.48;;;;;;;20.11;100.00;96199.69;5089210;28;20408;-75
2023/06/21 01:05:52;;;;;;;23.67;11.23;;;;;;;20.10;100.00;96203.63;5108958;28;20100;-75
2023/06/21 01:08:32;;;;;;;15.68;10.80;;;;;;;20.07;100.00;96205.97;5110463;28;20403;-75
2023/06/21 01:11:09;;;;;;;17.15;11.55;;;;;;;20.05;100.00;96197.28;5094947;28;20451;-74
2023/06/21 01:13:43;;;;;;;18.17;11.27;;;;;;;20.08;100.00;96206.78;5089540;28;20040;-74
2023/06/21 01:16:13;;;;;;;14.88;10.75;;;;;;;20.04;100.00;96206.75;5089712;28;20714;-74
2023/06/21 01:18:45;;;;;;;36.97;12.38;;;;;;;20.04;100.00;96212.25;5090275;28;20055;-74
2023/06/21 01:21:18;;;;;;;21.90;11.75;;;;;;;20.03;100.00;96216.22;5089877;28;20040;-75
2023/06/21 01:23:57;;;;;;;13.88;10.80;;;;;;;20.05;100.00;96211.13;5089303;28;20063;-74
2023/06/21 01:26:43;;;;;;;27.77;11.38;;;;;;;20.04;100.00;96217.78;5086795;28;20111;-75
2023/06/21 01:29:12;;;;;;;47.72;12.80;;;;;;;19.99;100.00;96220.94;5089572;28;20057;-75
2023/06/21 01:31:42;;;;;;;35.85;11.73;;;;;;;19.98;100.00;96226.81;5089853;28;20051;-74
2023/06/21 01:34:10;;;;;;;55.33;13.05;;;;;;;19.98;100.00;96230.38;5086066;28;20052;-74
2023/06/21 01:36:39;;;;;;;49.22;12.52;;;;;;;19.99;100.00;96232.00;5090170;28;20052;-75
2023/06/21 01:39:08;;;;;;;21.73;13.20;;;;;;;19.97;100.00;96220.50;5089387;28;20044;-74
2023/06/21 01:41:35;;;;;;;17.63;11.40;;;;;;;19.92;100.00;96220.88;5089780;28;20044;-75
2023/06/21 01:44:02;;;;;;;15.20;10.70;;;;;;;19.95;100.00;96231.16;5089186;28;20498;-74
2023/06/21 01:46:30;;;;;;;21.88;13.10;;;;;;;19.95;100.00;96236.69;5089498;28;20040;-74
2023/06/21 01:49:00;;;;;;;24.30;11.55;;;;;;;19.95;100.00;96233.94;5089827;28;20086;-75
2023/06/21 01:51:28;;;;;;;20.23;12.00;;;;;;;19.93;100.00;96227.97;5089638;28;20040;-74
2023/06/21 01:53:56;;;;;;;23.75;11.95;;;;;;;19.97;100.00;96211.44;5089746;28;20063;-74
2023/06/21 01:56:24;;;;;;;43.88;12.07;;;;;;;19.96;100.00;96210.63;5095528;28;20044;-74
2023/06/21 01:58:51;;;;;;;83.10;14.75;;;;;;;19.90;100.00;96209.41;5097771;28;20042;-74
2023/06/21 02:01:18;;;;;;;62.28;12.55;;;;;;;19.90;100.00;96212.16;5088492;28;20044;-74
2023/06/21 02:03:53;;;;;;;54.97;11.90;;;;;;;19.84;100.00;96208.19;5089180;28;20503;-75
2023/06/21 02:06:21;;;;;;;43.13;12.20;;;;;;;19.75;100.00;96200.19;5088561;28;20101;-74
2023/06/21 02:08:49;;;;;;;82.68;15.02;;;;;;;19.73;100.00;96201.72;5089280;28;20480;-75
2023/06/21 02:11:15;;;;;;;46.30;13.65;;;;;;;19.71;100.00;96195.81;5089147;28;20051;-74
2023/06/21 02:13:42;;;;;;;43.33;12.15;;;;;;;19.63;100.00;96189.44;5089526;28;20128;-74
2023/06/21 02:16:09;;;;;;;49.33;14.65;;;;;;;19.64;100.00;96184.72;5089027;28;20044;-74
2023/06/21 02:18:35;;;;;;;47.78;12.38;;;;;;;19.65;100.00;96189.06;5089681;28;20040;-74
2023/06/21 02:21:04;;;;;;;46.00;11.93;;;;;;;19.69;100.00;96195.41;5088492;28;20063;-75
2023/06/21 02:23:30;;;;;;;42.28;11.05;;;;;;;19.69;100.00;96200.94;5089085;28;20044;-74
2023/06/21 02:25:56;;;;;;;47.50;11.98;;;;;;;19.70;100.00;96208.03;5089659;28;20047;-75
2023/06/21 02:28:23;;;;;;;42.72;12.32;;;;;;;19.71;100.00;96202.13;5088751;28;20043;-74
2023/06/21 02:30:49;;;;;;;53.58;12.18;;;;;;;19.72;100.00;96211.22;5089134;28;20051;-74
2023/06/21 02:33:16;;;;;;;53.72;12.13;;;;;;;19.72;100.00;96213.97;5088808;28;20068;-75
2023/06/21 02:35:42;;;;;;;38.22;11.02;;;;;;;19.68;100.00;96207.59;5089722;28;20059;-74
2023/06/21 02:38:10;;;;;;;35.05;10.90;;;;;;;19.67;100.00;96222.59;5088717;28;20492;-74
2023/06/21 02:40:37;;;;;;;31.95;10.13;;;;;;;19.65;100.00;96217.47;5089146;28;20047;-74
2023/06/21 02:43:04;;;;;;;29.65;10.68;;;;;;;19.65;100.00;96213.91;5088929;28;20040;-74
2023/06/21 02:45:30;;;;;;;32.45;10.77;;;;;;;19.63;100.00;96217.06;5090295;28;20036;-74
2023/06/21 02:47:57;;;;;;;56.42;13.10;;;;;;;19.58;100.00;96219.34;5093096;28;20036;-74
2023/06/21 02:50:23;;;;;;;25.15;11.60;;;;;;;19.58;100.00;96230.41;5092723;28;20403;-74
2023/06/21 02:52:50;;;;;;;51.17;13.90;;;;;;;19.48;100.00;96240.94;5093648;28;20579;-74
2023/06/21 02:55:18;;;;;;;41.10;11.95;;;;;;;19.50;100.00;96235.81;5093053;28;20110;-74
2023/06/21 02:57:44;;;;;;;21.90;11.38;;;;;;;19.49;100.00;96245.28;5093526;28;20051;-74
2023/06/21 03:00:22;;;;;;;36.45;13.48;;;;;;;19.51;100.00;96240.16;5093671;28;20063;-74
2023/06/21 03:02:50;;;;;;;30.40;11.50;;;;;;;19.50;100.00;96241.34;5090284;28;20064;-74
2023/06/21 03:05:17;;;;;;;38.05;13.07;;;;;;;19.54;100.00;96233.09;5093123;28;20519;-74
2023/06/21 03:07:44;;;;;;;31.48;11.88;;;;;;;19.58;100.00;96239.47;5092622;28;20040;-74
2023/06/21 03:10:12;;;;;;;28.25;11.73;;;;;;;19.58;100.00;96239.47;5092209;28;20058;-75
2023/06/21 03:12:42;;;;;;;34.50;11.52;;;;;;;19.53;100.00;96237.06;5092134;28;20079;-74
2023/06/21 03:15:10;;;;;;;22.17;11.05;;;;;;;19.51;100.00;96223.59;5062240;28;20463;-74
2023/06/21 03:17:37;;;;;;;34.75;12.95;;;;;;;19.55;100.00;96235.47;5072641;28;20045;-74
2023/06/21 03:20:06;;;;;;;22.35;12.05;;;;;;;19.54;100.00;96236.66;5071397;28;20509;-74
2023/06/21 03:22:34;;;;;;;27.33;12.63;;;;;;;19.53;100.00;96237.84;5072718;28;20045;-74
2023/06/21 03:25:01;;;;;;;25.80;12.45;;;;;;;19.48;100.00;96240.94;5072162;28;20045;-74
2023/06/21 03:27:28;;;;;;;26.50;12.15;;;;;;;19.51;100.00;96244.91;5072436;28;20044;-74
2023/06/21 03:29:55;;;;;;;18.67;10.52;;;;;;;19.52;100.00;96239.03;5073190;28;20068;-74
2023/06/21 03:32:22;;;;;;;25.20;14.23;;;;;;;19.37;100.00;96248.31;5076879;28;20064;-74
2023/06/21 03:34:48;;;;;;;25.35;13.77;;;;;;;19.40;100.00;96242.03;5091055;28;20044;-74
2023/06/21 03:37:15;;;;;;;30.05;15.35;;;;;;;19.41;100.00;96245.59;5092872;28;20059;-75
2023/06/21 03:39:41;;;;;;;31.92;15.38;;;;;;;19.28;100.00;96242.28;5092379;28;20036;-74
2023/06/21 03:42:08;;;;;;;27.85;14.55;;;;;;;19.44;100.00;96247.59;5084825;28;20055;-74
2023/06/21 03:44:34;;;;;;;21.58;13.05;;;;;;;19.41;100.00;96246.38;5072203;28;20389;-74
2023/06/21 03:47:02;;;;;;;24.48;12.73;;;;;;;19.47;100.00;96255.94;5072709;28;20041;-74
2023/06/21 03:49:30;;;;;;;25.67;12.35;;;;;;;19.48;100.00;96252.00;5072426;28;20048;-74
2023/06/21 03:51:56;;;;;;;24.33;12.15;;;;;;;19.49;100.00;96252.78;5073270;28;20044;-74
2023/06/21 03:54:23;;;;;;;23.17;12.07;;;;;;;19.49;100.00;96253.56;5072508;28;20051;-74
2023/06/21 03:56:49;;;;;;;29.27;13.55;;;;;;;19.51;100.00;96251.22;5072885;28;20500;-74
2023/06/21 03:59:16;;;;;;;26.58;12.73;;;;;;;19.54;100.00;96253.22;5084416;28;20044;-74
2023/06/21 04:01:42;;;;;;;27.65;13.65;;;;;;;19.54;100.00;96244.16;5081159;28;20040;-74
2023/06/21 04:04:10;;;;;;;29.83;13.77;;;;;;;19.54;100.00;96256.00;5078975;28;20040;-74
2023/06/21 04:06:38;;;;;;;28.35;13.63;;;;;;;19.56;100.00;96253.63;5071924;28;20170;-74
2023/06/21 04:09:05;;;;;;;32.38;13.90;;;;;;;19.60;100.00;96247.41;5070883;28;20044;-75
2023/06/21 04:11:32;;;;;;;35.42;14.65;;;;;;;19.58;100.00;96258.00;5071577;28;20178;-74
2023/06/21 04:13:58;;;;;;;38.47;14.40;;;;;;;19.52;100.00;96257.53;5071203;28;20516;-74
2023/06/21 04:16:26;;;;;;;42.25;12.30;;;;;;;19.50;100.00;96266.22;5071080;28;20048;-74
2023/06/21 04:18:52;;;;;;;52.80;15.43;;;;;;;19.54;100.00;96261.53;5070920;28;20663;-74
2023/06/21 04:21:20;;;;;;;31.35;13.18;;;;;;;19.56;100.00;96266.66;5070587;28;20056;-74
2023/06/21 04:23:47;;;;;;;48.40;13.60;;;;;;;19.55;100.00;96278.88;5071368;28;20045;-74
2023/06/21 04:26:13;;;;;;;30.10;14.13;;;;;;;19.54;100.00;96272.56;5070959;28;20045;-74
2023/06/21 04:28:40;;;;;;;37.75;13.90;;;;;;;19.60;100.00;96278.56;5070989;28;20131;-74
2023/06/21 04:31:06;;;;;;;35.25;13.85;;;;;;;19.66;100.00;96276.25;5073069;28;20044;-74
2023/06/21 04:33:33;;;;;;;29.83;13.40;;;;;;;19.70;100.00;96279.88;5091323;28;20051;-74
2023/06/21 04:35:59;;;;;;;35.47;15.18;;;;;;;19.69;100.00;96275.53;5091174;28;20586;-74
2023/06/21 04:38:27;;;;;;;41.03;14.57;;;;;;;19.69;100.00;96279.06;5090809;28;20496;-74
2023/06/21 04:40:53;;;;;;;34.30;14.27;;;;;;;19.72;100.00;96283.81;5072019;28;20056;-73
2023/06/21 04:43:21;;;;;;;34.88;13.80;;;;;;;19.72;100.00;96278.31;5070251;28;20044;-74
2023/06/21 04:45:48;;;;;;;27.40;12.48;;;;;;;19.77;100.00;96279.94;5070855;28;20048;-74
2023/06/21 04:48:15;;;;;;;36.20;13.00;;;;;;;19.74;100.00;96286.22;5070522;28;20114;-74
2023/06/21 04:50:45;;;;;;;32.45;13.45;;;;;;;19.78;100.00;96287.03;5068805;28;20067;-73
2023/06/21 04:53:12;;;;;;;24.98;12.25;;;;;;;19.80;100.00;96285.50;5070391;28;20043;-73
2023/06/21 04:55:42;;;;;;;27.13;12.38;;;;;;;19.85;100.00;96284.38;5070254;28;20381;-73
2023/06/21 04:58:09;;;;;;;30.73;12.23;;;;;;;19.88;100.00;96291.88;5070137;28;20586;-74
2023/06/21 05:00:35;;;;;;;34.00;13.55;;;;;;;19.80;100.00;96293.78;5070311;28;20118;-74
2023/06/21 05:03:02;;;;;;;42.40;13.25;;;;;;;19.77;100.00;96291.78;5069915;28;20143;-74
2023/06/21 05:05:28;;;;;;;35.38;11.57;;;;;;;19.85;100.00;96302.91;5070580;28;20049;-74
2023/06/21 05:07:55;;;;;;;38.13;14.32;;;;;;;19.68;100.00;96287.72;5069586;28;20045;-74
2023/06/21 05:10:22;;;;;;;37.47;13.98;;;;;;;19.54;100.00;96291.91;5068683;28;20368;-74
2023/06/21 05:12:49;;;;;;;35.83;12.98;;;;;;;19.49;100.00;96303.28;5070545;28;20518;-75
2023/06/21 05:15:16;;;;;;;39.80;14.43;;;;;;;19.55;100.00;96309.25;5062157;28;20037;-74
2023/06/21 05:17:42;;;;;;;38.83;13.95;;;;;;;19.58;100.00;96305.75;5071079;28;20305;-74
2023/06/21 05:20:09;;;;;;;46.30;15.57;;;;;;;19.51;100.00;96311.97;5069742;28;20048;-74
2023/06/21 05:22:36;;;;;;;41.17;14.45;;;;;;;19.56;100.00;96308.09;5069035;28;20072;-74
2023/06/21 05:25:03;;;;;;;38.80;13.98;;;;;;;19.62;100.00;96308.56;5070650;28;20045;-74
2023/06/21 05:27:30;;;;;;;34.38;12.05;;;;;;;19.74;100.00;96317.41;5070751;28;20040;-74
2023/06/21 05:29:58;;;;;;;51.92;14.82;;;;;;;19.79;100.00;96319.84;5071024;28;20040;-74
2023/06/21 05:32:25;;;;;;;50.45;16.25;;;;;;;19.75;100.00;96327.28;5083525;28;20276;-74
2023/06/21 05:34:52;;;;;;;38.60;14.10;;;;;;;19.85;100.00;96325.81;5090534;28;20101;-73
2023/06/21 05:37:18;;;;;;;40.58;13.55;;;;;;;19.95;100.00;96330.66;5084986;28;20055;-74
2023/06/21 05:39:45;;;;;;;40.75;12.65;;;;;;;20.04;100.00;96325.59;5069842;28;20044;-74
2023/06/21 05:42:11;;;;;;;34.47;13.80;;;;;;;20.09;100.00;96338.28;5069419;28;20057;-75
2023/06/21 05:44:38;;;;;;;39.35;13.48;;;;;;;20.07;100.00;96333.13;5070021;28;20040;-73
2023/06/21 05:47:07;;;;;;;47.40;14.70;;;;;;;19.96;100.00;96343.28;5064221;28;20055;-74
2023/06/21 05:49:34;;;;;;;43.40;15.95;;;;;;;19.97;100.00;96350.41;5069639;28;20131;-73
2023/06/21 05:52:00;;;;;;;48.05;13.60;;;;;;;20.06;100.00;96348.13;5069803;28;20055;-74
2023/06/21 05:54:27;;;;;;;41.30;14.52;;;;;;;20.03;100.00;96348.88;5072870;28;20049;-74
2023/06/21 05:56:55;;;;;;;34.88;11.90;;;;;;;20.18;100.00;96363.66;5073506;28;20041;-74
2023/06/21 05:59:21;;;;;;;35.45;13.23;;;;;;;20.24;100.00;96369.63;5072211;28;20055;-74
2023/06/21 06:01:48;;;;;;;37.75;14.00;;;;;;;20.25;100.00;96373.97;5073359;28;20040;-74
2023/06/21 06:04:16;;;;;;;39.20;13.38;;;;;;;20.37;100.00;96373.72;5095157;28;20051;-75
2023/06/21 06:06:42;;;;;;;40.88;14.38;;;;;;;20.35;100.00;96376.06;5095777;28;20040;-75
2023/06/21 06:09:10;;;;;;;36.35;13.93;;;;;;;20.33;100.00;96379.19;5085249;28;20048;-75
2023/06/21 06:11:36;;;;;;;46.45;13.40;;;;;;;20.40;100.00;96386.75;5081644;28;20054;-75
2023/06/21 06:14:03;;;;;;;44.72;13.10;;;;;;;20.47;100.00;96397.16;5077515;28;20040;-75
2023/06/21 06:16:30;;;;;;;36.33;12.10;;;;;;;20.47;100.00;96391.63;5082216;28;20051;-75
2023/06/21 06:18:56;;;;;;;63.30;13.73;;;;;;;20.49;100.00;96386.50;5075290;28;20037;-75
2023/06/21 06:21:24;;;;;;;42.17;13.43;;;;;;;20.54;100.00;96395.22;5079358;28;20041;-75
2023/06/21 06:23:51;;;;;;;36.03;13.65;;;;;;;20.54;100.00;96394.44;5070428;28;20067;-75
2023/06/21 06:26:22;;;;;;;23.58;13.18;;;;;;;20.66;100.00;96401.66;5078048;28;20041;-75
2023/06/21 06:28:49;;;;;;;45.47;14.88;;;;;;;20.67;100.00;96400.47;5078038;28;20078;-74
2023/06/21 06:31:15;;;;;;;37.22;13.50;;;;;;;20.83;100.00;96409.31;5077578;28;20052;-73
2023/06/21 06:33:42;;;;;;;41.95;12.13;;;;;;;20.91;100.00;96413.72;5076127;28;20044;-74
2023/06/21 06:36:08;;;;;;;46.30;12.55;;;;;;;20.97;98.96;96417.72;5087313;28;20097;-74
2023/06/21 06:38:36;;;;;;;57.05;12.90;;;;;;;20.98;98.89;96408.22;5088743;28;20060;-72
2023/06/21 06:41:02;;;;;;;51.22;12.05;;;;;;;21.14;96.42;96415.44;5068253;28;20652;-73
2023/06/21 06:43:29;;;;;;;39.15;10.13;;;;;;;21.21;96.14;96415.53;5066702;28;20063;-73
2023/06/21 06:45:56;;;;;;;38.95;11.02;;;;;;;21.31;97.73;96425.91;5066923;28;20036;-74
2023/06/21 06:48:23;;;;;;;41.58;11.90;;;;;;;21.35;96.24;96427.50;5066471;28;20055;-72
2023/06/21 06:50:50;;;;;;;26.33;11.75;;;;;;;21.38;94.84;96423.16;5069649;28;20538;-72
2023/06/21 06:53:16;;;;;;;28.02;10.23;;;;;;;21.45;93.44;96431.50;5076814;28;20041;-73
2023/06/21 06:55:44;;;;;;;30.27;10.75;;;;;;;21.60;95.53;96435.94;5077953;28;20127;-73
2023/06/21 06:58:10;;;;;;;24.63;11.35;;;;;;;21.71;96.68;96432.44;5078194;28;20048;-73
2023/06/21 07:00:37;;;;;;;32.00;11.43;;;;;;;21.67;94.22;96442.72;5068213;28;20044;-72
2023/06/21 07:03:05;;;;;;;33.95;12.00;;;;;;;21.78;91.87;96438.03;5068426;28;20037;-73
2023/06/21 07:05:35;;;;;;;24.77;9.45;;;;;;;21.86;91.22;96442.41;5075147;28;20127;-72
2023/06/21 07:08:01;;;;;;;30.42;11.50;;;;;;;21.81;91.66;96442.78;5077005;28;20040;-73
2023/06/21 07:10:28;;;;;;;28.55;11.57;;;;;;;21.87;92.34;96446.75;5087703;28;20052;-72
2023/06/21 07:12:56;;;;;;;23.92;11.73;;;;;;;21.95;90.65;96445.63;5077445;28;20040;-73
2023/06/21 07:15:22;;;;;;;32.63;11.48;;;;;;;22.10;91.88;96449.25;5062128;28;20052;-73
2023/06/21 07:17:49;;;;;;;26.20;9.43;;;;;;;22.26;92.01;96440.63;5071758;28;20050;-73
2023/06/21 07:20:15;;;;;;;37.60;11.85;;;;;;;22.30;93.23;96452.53;5068758;28;20052;-73
2023/06/21 07:22:42;;;;;;;27.02;9.63;;;;;;;22.48;89.04;96456.13;5064639;28;20040;-72
2023/06/21 07:25:08;;;;;;;40.25;12.77;;;;;;;22.38;89.09;96456.88;5071741;28;20071;-72
2023/06/21 07:27:35;;;;;;;32.80;11.52;;;;;;;22.53;90.59;96460.50;5076338;28;20044;-72
2023/06/21 07:30:05;;;;;;;30.00;12.05;;;;;;;22.53;90.19;96455.72;5074784;28;20132;-74
2023/06/21 07:32:32;;;;;;;19.75;10.73;;;;;;;22.54;88.71;96451.75;5079975;28;20045;-73
2023/06/21 07:34:59;;;;;;;31.58;11.00;;;;;;;22.65;87.96;96452.56;5089664;28;20036;-73
2023/06/21 07:37:27;;;;;;;28.30;11.02;;;;;;;22.63;85.91;96448.63;5101387;28;20050;-73
2023/06/21 07:39:55;;;;;;;19.50;9.98;;;;;;;22.64;86.71;96459.31;5101498;28;20509;-73
2023/06/21 07:42:21;;;;;;;29.90;9.73;;;;;;;22.87;86.20;96458.97;5101557;28;21086;-73
2023/06/21 07:44:50;;;;;;;30.42;10.10;;;;;;;22.90;84.72;96449.06;5102075;28;20044;-73
2023/06/21 07:47:18;;;;;;;42.58;11.30;;;;;;;23.02;83.23;96443.13;5079053;28;20076;-73
2023/06/21 07:49:45;;;;;;;38.60;14.32;;;;;;;23.07;80.71;96439.94;5078857;28;20051;-73
2023/06/21 07:52:11;;;;;;;52.72;9.63;;;;;;;23.23;81.82;96439.56;5078365;28;20044;-73
2023/06/21 07:54:38;;;;;;;26.05;9.40;;;;;;;23.28;76.39;96441.91;5074869;28;20415;-73
2023/06/21 07:57:05;;;;;;;23.15;8.55;;;;;;;23.46;81.71;96438.31;5072440;28;20040;-73
2023/06/21 07:59:31;;;;;;;24.67;9.73;;;;;;;23.59;78.97;96442.25;5072173;28;20054;-72
2023/06/21 08:01:58;;;;;;;16.92;8.05;;;;;;;23.77;78.27;96445.03;5072122;28;20037;-73
2023/06/21 08:04:26;;;;;;;32.55;9.52;;;;;;;23.84;77.59;96443.00;5066053;28;20500;-72
2023/06/21 08:06:52;;;;;;;33.97;10.35;;;;;;;23.96;77.21;96438.97;5072067;28;20047;-73
2023/06/21 08:09:19;;;;;;;21.67;8.57;;;;;;;24.04;73.72;96429.41;5071049;28;20064;-72
2023/06/21 08:11:45;;;;;;;41.97;8.70;;;;;;;24.18;74.75;96434.91;5071814;28;20048;-73
2023/06/21 08:14:11;;;;;;;62.17;9.32;;;;;;;24.38;72.94;96437.22;5071415;28;20051;-72
2023/06/21 08:16:38;;;;;;;52.83;8.25;;;;;;;24.51;74.69;96435.56;5070725;28;20044;-72
2023/06/21 08:19:05;;;;;;;63.00;9.25;;;;;;;24.54;69.87;96433.97;5070375;28;20037;-73
2023/06/21 08:21:33;;;;;;;43.45;8.48;;;;;;;24.71;74.06;96433.84;5071651;28;20070;-72
2023/06/21 08:24:00;;;;;;;22.58;8.40;;;;;;;24.80;68.53;96430.59;5071201;28;20037;-74
2023/06/21 08:26:26;;;;;;;24.63;8.48;;;;;;;24.95;71.03;96428.47;5062958;28;20052;-73
2023/06/21 08:28:53;;;;;;;28.58;9.32;;;;;;;25.23;71.84;96431.06;5071583;28;20582;-73
2023/06/21 08:31:19;;;;;;;22.63;9.35;;;;;;;25.37;70.62;96430.13;5070299;28;20048;-73
2023/06/21 08:33:45;;;;;;;26.00;9.75;;;;;;;25.48;70.59;96425.25;5071284;28;20052;-74
2023/06/21 08:36:12;;;;;;;23.67;9.32;;;;;;;25.63;69.45;96431.47;5071142;28;20496;-75
2023/06/21 08:38:40;;;;;;;14.43;7.70;;;;;;;25.76;66.57;96429.75;5071212;28;20060;-74
2023/06/21 08:41:06;;;;;;;51.35;30.27;;;;;;;25.86;67.10;96430.03;5070044;28;20048;-72
2023/06/21 08:43:33;;;;;;;15.20;6.82;;;;;;;26.01;67.44;96428.66;5070951;28;20051;-72
2023/06/21 08:46:03;;;;;;;41.45;8.13;;;;;;;26.15;64.38;96439.63;5070904;28;20044;-73
2023/06/21 08:48:30;;;;;;;22.27;7.13;;;;;;;26.32;63.65;96442.63;5062664;28;20036;-72
2023/06/21 08:50:58;;;;;;;38.42;7.68;;;;;;;26.36;61.84;96440.56;5070761;28;20036;-74
2023/06/21 08:53:32;;;;;;;57.70;11.35;;;;;;;26.49;60.36;96436.81;5069972;28;20393;-73
2023/06/21 08:56:01;;;;;;;60.50;7.63;;;;;;;26.49;60.86;96431.25;5070843;28;20041;-73
2023/06/21 08:58:35;;;;;;;72.43;9.13;;;;;;;26.62;60.92;96439.03;5063604;28;20050;-73
2023/06/21 09:01:03;;;;;;;13.52;7.10;;;;;;;26.75;59.75;96442.84;5070232;28;20484;-77
2023/06/21 09:03:37;;;;;;;12.25;5.97;;;;;;;26.84;60.02;96450.69;5070909;28;20049;-74
2023/06/21 09:06:05;;;;;;;11.50;6.30;;;;;;;26.90;60.52;96438.63;5070264;28;20040;-74
2023/06/21 09:08:34;;;;;;;15.23;8.00;;;;;;;26.98;59.69;96444.88;5070248;28;20073;-74
2023/06/21 09:11:03;;;;;;;15.25;7.60;;;;;;;27.05;61.85;96450.38;5068103;28;20491;-74
2023/06/21 09:13:34;;;;;;;12.80;6.35;;;;;;;27.05;58.09;96444.78;5070371;28;20479;-73
2023/06/21 09:16:03;;;;;;;12.93;7.75;;;;;;;27.06;59.89;96446.34;5070649;28;20041;-74
2023/06/21 09:18:35;;;;;;;13.05;7.60;;;;;;;27.08;58.88;96449.53;5061717;28;20041;-73
2023/06/21 09:21:02;;;;;;;;;;;;;;;27.13;58.80;96448.25;5066882;28;20129;-76
2023/06/21 09:23:28;;;;;;;17.30;8.25;;;;;;;27.11;59.31;96453.50;5070630;28;19927;-73
2023/06/21 09:25:55;;;;;;;13.40;7.53;;;;;;;27.29;60.57;96449.16;5070365;28;20117;-74
2023/06/21 09:28:24;;;;;;;9.77;6.60;;;;;;;27.36;59.50;96450.28;5069661;28;20048;-74
2023/06/21 09:30:50;;;;;;;13.75;7.28;;;;;;;27.42;56.74;96456.97;5069628;28;20040;-74
2023/06/21 09:33:17;;;;;;;13.68;6.95;;;;;;;27.51;59.82;96457.19;5069544;28;20059;-73
2023/06/21 09:35:45;;;;;;;16.15;8.20;;;;;;;27.35;53.99;96462.66;5070183;28;20048;-73
2023/06/21 09:38:23;;;;;;;22.00;9.10;;;;;;;27.36;57.02;96464.25;5069007;28;20045;-73
2023/06/21 09:40:49;;;;;;;28.65;9.90;;;;;;;27.44;56.68;96457.31;5069639;28;20044;-73
2023/06/21 09:43:16;;;;;;;33.45;8.90;;;;;;;27.51;55.35;96451.59;5069231;28;20052;-73
2023/06/21 09:45:43;;;;;;;11.70;6.13;;;;;;;27.67;55.49;96454.50;5073321;28;20059;-73
2023/06/21 09:48:14;;;;;;;18.48;7.40;;;;;;;27.58;51.13;96446.66;5075409;28;20068;-73
2023/06/21 09:50:43;;;;;;;13.68;6.22;;;;;;;27.77;53.59;96447.13;5070783;28;20125;-73
2023/06/21 09:53:10;;;;;;;19.50;7.70;;;;;;;27.71;52.66;96446.84;5069603;28;20044;-73
2023/06/21 09:55:37;;;;;;;14.90;7.70;;;;;;;27.85;53.92;96434.59;5069230;28;20044;-73
2023/06/21 09:58:04;;;;;;;13.35;7.10;;;;;;;27.83;52.04;96425.88;5069654;28;20381;-74
2023/06/21 10:00:35;;;;;;;15.32;7.32;;;;;;;28.01;52.07;96417.09;5069036;28;20407;-73
2023/06/21 10:03:04;;;;;;;11.75;6.35;;;;;;;28.18;51.34;96407.53;5069329;28;20130;-74
2023/06/21 10:05:31;;;;;;;20.50;7.30;;;;;;;27.96;52.76;96400.81;5069186;28;20142;-73
2023/06/21 10:07:57;;;;;;;18.67;7.50;;;;;;;28.05;51.34;96403.81;5069549;28;20442;-73
2023/06/21 10:10:25;;;;;;;11.43;5.88;;;;;;;28.24;52.15;96405.81;5068965;28;20060;-73
2023/06/21 10:12:52;;;;;;;15.07;6.90;;;;;;;28.14;49.23;96412.44;5069683;28;20071;-73
2023/06/21 10:15:18;;;;;;;13.15;6.43;;;;;;;28.27;52.88;96404.94;5068553;28;20048;-73
2023/06/21 10:17:46;;;;;;;13.23;7.03;;;;;;;28.25;50.27;96424.19;5069349;28;20044;-73
2023/06/21 10:20:15;;;;;;;21.33;7.38;;;;;;;28.17;52.63;96442.34;5069305;28;20057;-73
2023/06/21 10:22:44;;;;;;;9.88;5.88;;;;;;;27.98;53.03;96473.91;5089213;28;20097;-73
2023/06/21 10:25:11;;;;;;;16.25;7.53;;;;;;;27.61;53.39;96483.38;5087809;28;20726;-73
2023/06/21 10:27:38;;;;;;;8.80;5.88;;;;;;;27.51;53.32;96499.13;5072946;28;20052;-73
2023/06/21 10:30:07;;;;;;;15.38;6.55;;;;;;;27.51;51.68;96513.13;5082850;28;20048;-73
2023/06/21 10:32:35;;;;;;;14.38;6.32;;;;;;;27.00;52.08;96526.28;5069301;28;20048;-73
2023/06/21 10:35:07;;;;;;;9.32;6.05;;;;;;;26.80;54.69;96538.13;5069110;28;20052;-73
2023/06/21 10:37:48;;;;;;;10.32;6.28;;;;;;;26.85;54.34;96552.84;5061620;28;20052;-73
2023/06/21 10:40:15;;;;;;;15.73;6.95;;;;;;;26.56;56.73;96575.56;5068102;28;20059;-72
2023/06/21 10:42:42;;;;;;;14.27;6.78;;;;;;;26.47;54.39;96570.50;5069440;28;20049;-72
2023/06/21 10:45:11;;;;;;;10.82;6.25;;;;;;;26.56;53.48;96586.72;5068550;28;20056;-73
2023/06/21 10:47:38;;;;;;;13.93;6.60;;;;;;;26.37;54.49;96587.34;5069364;28;20041;-72
2023/06/21 10:50:06;;;;;;;15.65;7.38;;;;;;;26.36;54.42;96594.91;5068283;28;20059;-73
2023/06/21 10:52:35;;;;;;;12.27;6.38;;;;;;;26.32;54.66;96598.97;5089410;28;20040;-72
2023/06/21 10:55:03;;;;;;;15.15;6.60;;;;;;;26.16;56.15;96594.75;5088977;28;20051;-73
2023/06/21 10:57:32;;;;;;;13.35;7.35;;;;;;;26.05;57.12;96587.66;5089296;28;20044;-73
2023/06/21 11:00:02;;;;;;;19.85;7.63;;;;;;;26.07;56.52;96549.78;5070643;28;20410;-72
2023/06/21 11:02:29;;;;;;;16.23;7.90;;;;;;;25.98;57.71;96546.69;5068805;28;20059;-73
2023/06/21 11:05:16;;;;;;;11.50;7.13;;;;;;;25.97;58.28;96595.31;5068924;28;20045;-72
2023/06/21 11:07:49;;;;;;;22.85;5.85;;;;;;;24.46;53.42;96616.91;5069934;28;20044;-72
2023/06/21 11:10:15;;;;;;;;;;;;;;;23.69;55.89;96620.19;5072620;28;20049;-72
2023/06/21 11:12:42;;;;;;;23.02;5.68;;;;;;;23.40;57.48;96607.44;5072947;28;19928;-72
2023/06/21 11:15:09;;;;;;;34.15;6.35;;;;;;;23.05;57.89;96614.53;5071785;28;20044;-72
2023/06/21 11:17:36;;;;;;;26.27;6.45;;;;;;;23.07;60.31;96623.25;5067241;28;20051;-72
2023/06/21 11:20:25;;;;;;;21.40;5.90;;;;;;;22.96;61.94;96622.44;5070032;28;20048;-72